Time;durP1;ratioP1;P1;durP2;ratioP2;P2;SDS_P1;SDS_P2;PMS_P1;PMS_P2;Temp;Humidity;BMP_temperature;BMP_pressure;BME280_temperature;BME280_humidity;BME280_pressure;Samples;Min_cycle;Max_cycle;Signal;HPM_P1;HPM_P2
2022/09/27 00:01:46;;;;;;;;;;;17.10;63.30;;;;;;5092959;28;20265;-70
2022/09/27 00:04:11;;;;;;;;;;;17.00;63.20;;;;;;5074656;28;19920;-69
2022/09/27 00:06:37;;;;;;;;;;;17.00;63.20;;;;;;5074758;28;19924;-69
2022/09/27 00:09:03;;;;;;;;;;;17.00;63.20;;;;;;5074693;28;20010;-69
2022/09/27 00:11:33;;;;;;;;;;;17.00;63.20;;;;;;5074655;28;20006;-69
2022/09/27 00:13:59;;;;;;;;;;;17.00;63.20;;;;;;5074873;28;20299;-68
2022/09/27 00:16:26;;;;;;;;;;;17.00;63.20;;;;;;5074807;28;19920;-69
2022/09/27 00:18:51;;;;;;;;;;;17.10;63.20;;;;;;5092604;28;19920;-69
2022/09/27 00:21:17;;;;;;;;;;;17.00;63.20;;;;;;5074697;28;20409;-69
2022/09/27 00:23:42;;;;;;;;;;;17.00;63.20;;;;;;5092746;28;19924;-69
2022/09/27 00:26:10;;;;;;;;;;;17.00;63.20;;;;;;5092749;28;19947;-70
2022/09/27 00:28:36;;;;;;;;;;;17.00;63.20;;;;;;5074805;28;19966;-70
2022/09/27 00:31:02;;;;;;;;;;;17.00;63.20;;;;;;5092559;28;20376;-70
2022/09/27 00:33:27;;;;;;;;;;;17.00;63.20;;;;;;5092532;28;20415;-70
2022/09/27 00:35:53;;;;;;;;;;;17.00;63.20;;;;;;5074648;28;19920;-70
2022/09/27 00:38:19;;;;;;;;;;;17.00;63.20;;;;;;5074659;28;20352;-70
2022/09/27 00:40:44;;;;;;;;;;;17.00;63.20;;;;;;5092460;28;19965;-69
2022/09/27 00:43:25;;;;;;;;;;;17.00;63.20;;;;;;5090805;28;19955;-70
2022/09/27 00:45:52;;;;;;;;;;;16.90;63.10;;;;;;5091290;28;19949;-69
2022/09/27 00:48:20;;;;;;;;;;;16.90;63.10;;;;;;5074295;28;20171;-70
2022/09/27 00:50:48;;;;;;;;;;;16.90;63.10;;;;;;5092215;28;19943;-69
2022/09/27 00:53:16;;;;;;;;;;;17.00;63.20;;;;;;5074296;28;19927;-69
2022/09/27 00:55:43;;;;;;;;;;;16.90;63.10;;;;;;5091261;28;20121;-69
2022/09/27 00:58:11;;;;;;;;;;;16.90;63.10;;;;;;5091328;28;19920;-69
2022/09/27 01:00:37;;;;;;;;;;;16.90;63.20;;;;;;5074445;28;20060;-69
2022/09/27 01:03:06;;;;;;;;;;;17.00;63.40;;;;;;5074082;28;20384;-70
2022/09/27 01:05:31;;;;;;;;;;;16.90;63.10;;;;;;5074224;28;19931;-70
2022/09/27 01:07:59;;;;;;;;;;;16.90;63.10;;;;;;5074208;28;19927;-69
2022/09/27 01:10:28;;;;;;;;;;;16.90;63.10;;;;;;5073931;28;20010;-69
2022/09/27 01:12:59;;;;;;;;;;;16.90;63.10;;;;;;5091221;28;19920;-67
2022/09/27 01:15:28;;;;;;;;;;;16.90;63.10;;;;;;5092076;28;19920;-69
2022/09/27 01:23:42;;;;;;;;;;;16.90;63.10;;;;;;5089965;28;20257;-69
2022/09/27 01:31:41;;;;;;;;;;;16.90;63.10;;;;;;5089906;28;19919;-70
2022/09/27 01:34:11;;;;;;;;;;;16.80;63.10;;;;;;5088901;28;20334;-69
2022/09/27 01:36:57;;;;;;;;;;;16.80;63.10;;;;;;5088489;28;19930;-69
2022/09/27 01:39:43;;;;;;;;;;;16.80;63.10;;;;;;5089649;28;20330;-69
2022/09/27 01:42:13;;;;;;;;;;;16.80;63.10;;;;;;5089552;28;19920;-69
2022/09/27 01:44:59;;;;;;;;;;;16.80;63.00;;;;;;5089765;28;20501;-69
2022/09/27 01:47:30;;;;;;;;;;;16.80;63.00;;;;;;5088473;28;19928;-69
2022/09/27 01:50:01;;;;;;;;;;;16.80;63.10;;;;;;5088243;28;19924;-70
2022/09/27 01:52:30;;;;;;;;;;;16.80;63.10;;;;;;5089739;28;20338;-68
2022/09/27 01:54:58;;;;;;;;;;;16.80;63.80;;;;;;5088257;28;19920;-69
2022/09/27 01:57:25;;;;;;;;;;;16.80;63.10;;;;;;5088598;28;20085;-69
2022/09/27 01:59:53;;;;;;;;;;;16.80;63.00;;;;;;5088044;28;19920;-69
2022/09/27 02:02:23;;;;;;;;;;;16.80;63.00;;;;;;5088290;28;19927;-69
2022/09/27 02:04:50;;;;;;;;;;;16.80;63.00;;;;;;5088082;28;19920;-68
2022/09/27 02:07:19;;;;;;;;;;;16.80;63.00;;;;;;5088231;28;19921;-69
2022/09/27 02:12:30;;;;;;;;;;;16.80;63.10;;;;;;5089738;28;20388;-70
2022/09/27 02:15:05;;;;;;;;;;;16.80;63.00;;;;;;5088927;28;19921;-70
2022/09/27 02:17:37;;;;;;;;;;;16.70;63.00;;;;;;5088436;28;19921;-69
2022/09/27 02:20:11;;;;;;;;;;;16.80;63.10;;;;;;5088562;28;19999;-70
2022/09/27 02:25:20;;;;;;;;;;;16.70;63.00;;;;;;5089979;28;19913;-69
2022/09/27 02:28:05;;;;;;;;;;;16.70;62.90;;;;;;5088806;28;19921;-70
2022/09/27 02:30:31;;;;;;;;;;;16.70;63.00;;;;;;5088562;28;20015;-68
2022/09/27 02:32:57;;;;;;;;;;;16.70;63.00;;;;;;5088460;28;20016;-69
2022/09/27 02:35:37;;;;;;;;;;;16.80;63.00;;;;;;5088673;28;19987;-69
2022/09/27 02:38:04;;;;;;;;;;;16.70;63.00;;;;;;5088695;28;19925;-69
2022/09/27 02:40:32;;;;;;;;;;;16.70;63.00;;;;;;5088353;28;19920;-69
2022/09/27 02:42:58;;;;;;;;;;;16.70;62.90;;;;;;5089493;28;19966;-69
2022/09/27 02:45:27;;;;;;;;;;;16.70;62.90;;;;;;5088475;28;19920;-69
2022/09/27 02:47:56;;;;;;;;;;;16.70;62.90;;;;;;5089544;28;19921;-69
2022/09/27 02:50:32;;;;;;;;;;;16.70;63.00;;;;;;5089222;28;19928;-69
2022/09/27 02:56:00;;;;;;;;;;;16.70;63.00;;;;;;5089837;28;19919;-69
2022/09/27 03:01:29;;;;;;;;;;;16.70;63.00;;;;;;5089998;28;19912;-69
2022/09/27 03:03:59;;;;;;;;;;;16.60;62.90;;;;;;5105170;28;19974;-69
2022/09/27 03:06:26;;;;;;;;;;;16.70;62.90;;;;;;5088475;28;19924;-69
2022/09/27 03:08:51;;;;;;;;;;;16.70;62.90;;;;;;5088794;28;19924;-69
2022/09/27 03:11:17;;;;;;;;;;;16.70;62.90;;;;;;5089568;28;20429;-69
2022/09/27 03:13:43;;;;;;;;;;;16.70;62.90;;;;;;5088446;28;19920;-69
2022/09/27 03:16:08;;;;;;;;;;;16.70;62.90;;;;;;5088591;28;19920;-69
2022/09/27 03:18:34;;;;;;;;;;;16.70;62.90;;;;;;5089601;28;19921;-69
2022/09/27 03:20:59;;;;;;;;;;;16.60;62.80;;;;;;5088114;28;19960;-69
2022/09/27 03:23:25;;;;;;;;;;;16.70;62.90;;;;;;5088042;28;19929;-69
2022/09/27 03:25:51;;;;;;;;;;;16.60;62.80;;;;;;5089138;28;19924;-69
2022/09/27 03:28:16;;;;;;;;;;;16.60;62.80;;;;;;5089337;28;19950;-69
2022/09/27 03:30:43;;;;;;;;;;;16.70;62.80;;;;;;5087964;28;20005;-69
2022/09/27 03:33:09;;;;;;;;;;;16.60;62.70;;;;;;5088289;28;19920;-69
2022/09/27 03:35:35;;;;;;;;;;;16.60;62.80;;;;;;5089249;28;20299;-69
2022/09/27 03:38:01;;;;;;;;;;;16.60;62.70;;;;;;5088184;28;19930;-70
2022/09/27 03:40:26;;;;;;;;;;;16.60;62.70;;;;;;5087720;28;20384;-69
2022/09/27 03:42:52;;;;;;;;;;;16.60;62.70;;;;;;5088386;28;19924;-67
2022/09/27 03:45:17;;;;;;;;;;;16.60;62.70;;;;;;5088008;28;19928;-69
2022/09/27 03:47:43;;;;;;;;;;;16.60;62.70;;;;;;5089103;28;19920;-69
2022/09/27 03:50:10;;;;;;;;;;;16.60;62.70;;;;;;5087726;28;20319;-69
2022/09/27 03:52:36;;;;;;;;;;;16.60;62.60;;;;;;5087883;28;19927;-69
2022/09/27 03:55:02;;;;;;;;;;;16.60;62.60;;;;;;5088892;28;20380;-69
2022/09/27 03:57:29;;;;;;;;;;;16.60;62.60;;;;;;5088716;28;19928;-69
2022/09/27 03:59:55;;;;;;;;;;;16.60;62.60;;;;;;5098937;28;19980;-69
2022/09/27 04:02:20;;;;;;;;;;;16.50;62.50;;;;;;5107946;28;19928;-69
2022/09/27 04:04:46;;;;;;;;;;;16.60;62.50;;;;;;5107784;28;19920;-69
2022/09/27 04:07:12;;;;;;;;;;;16.60;62.50;;;;;;5108929;28;19927;-69
2022/09/27 04:09:37;;;;;;;;;;;16.60;62.50;;;;;;5108900;28;20022;-69
2022/09/27 04:12:03;;;;;;;;;;;16.60;62.50;;;;;;5097538;28;19992;-70
2022/09/27 04:14:29;;;;;;;;;;;16.60;62.50;;;;;;5095176;28;19938;-69
2022/09/27 04:16:55;;;;;;;;;;;16.60;62.50;;;;;;5077020;28;19924;-69
2022/09/27 04:19:20;;;;;;;;;;;16.60;62.50;;;;;;5077228;28;20127;-69
2022/09/27 04:21:46;;;;;;;;;;;16.60;62.50;;;;;;5093852;28;20375;-69
2022/09/27 04:24:12;;;;;;;;;;;16.60;62.40;;;;;;5095144;28;19920;-69
2022/09/27 04:26:38;;;;;;;;;;;16.60;62.50;;;;;;5095030;28;20031;-69
2022/09/27 04:29:04;;;;;;;;;;;16.60;62.40;;;;;;5094941;28;19981;-69
2022/09/27 04:31:30;;;;;;;;;;;16.60;62.40;;;;;;5094917;28;20390;-69
2022/09/27 04:33:56;;;;;;;;;;;16.60;62.40;;;;;;5077069;28;19927;-69
2022/09/27 04:36:25;;;;;;;;;;;16.60;62.40;;;;;;5076739;28;19924;-68
2022/09/27 04:38:51;;;;;;;;;;;16.60;62.40;;;;;;5076810;28;19920;-69
2022/09/27 04:41:17;;;;;;;;;;;16.60;62.40;;;;;;5076712;28;19920;-69
2022/09/27 04:43:42;;;;;;;;;;;16.60;62.40;;;;;;5076799;28;19927;-69
2022/09/27 04:46:08;;;;;;;;;;;16.60;62.40;;;;;;5076890;28;19927;-69
2022/09/27 04:48:33;;;;;;;;;;;16.60;62.40;;;;;;5094824;28;20307;-67
2022/09/27 04:51:01;;;;;;;;;;;16.60;62.30;;;;;;5076645;28;19920;-70
2022/09/27 04:53:28;;;;;;;;;;;16.60;62.30;;;;;;5094714;28;20368;-67
2022/09/27 04:55:54;;;;;;;;;;;16.60;62.30;;;;;;5094437;28;19993;-69
2022/09/27 04:58:20;;;;;;;;;;;16.60;62.30;;;;;;5076281;28;19920;-69
2022/09/27 05:00:46;;;;;;;;;;;16.60;62.20;;;;;;5076011;28;19924;-69
2022/09/27 05:03:13;;;;;;;;;;;16.60;62.30;;;;;;5094406;28;19920;-69
2022/09/27 05:05:40;;;;;;;;;;;16.60;62.30;;;;;;5076472;28;20321;-69
2022/09/27 05:08:05;;;;;;;;;;;16.60;62.20;;;;;;5094175;28;20347;-69
2022/09/27 05:10:31;;;;;;;;;;;16.60;62.20;;;;;;5094291;28;19931;-69
2022/09/27 05:12:56;;;;;;;;;;;16.60;63.00;;;;;;5094148;28;20291;-69
2022/09/27 05:15:22;;;;;;;;;;;16.60;62.20;;;;;;5075861;28;19920;-69
2022/09/27 05:17:50;;;;;;;;;;;16.60;62.10;;;;;;5094173;28;20022;-69
2022/09/27 05:20:15;;;;;;;;;;;16.60;62.10;;;;;;5075710;28;19928;-69
2022/09/27 05:22:41;;;;;;;;;;;16.60;62.10;;;;;;5074894;28;19924;-69
2022/09/27 05:25:07;;;;;;;;;;;16.50;62.10;;;;;;5093915;28;19920;-69
2022/09/27 05:27:32;;;;;;;;;;;16.60;62.10;;;;;;5093887;28;19920;-69
2022/09/27 05:30:00;;;;;;;;;;;16.50;62.00;;;;;;5093768;28;19920;-69
2022/09/27 05:32:26;;;;;;;;;;;16.60;62.10;;;;;;5092123;28;20360;-68
2022/09/27 05:34:53;;;;;;;;;;;16.60;62.50;;;;;;5093346;28;19965;-68
2022/09/27 05:37:18;;;;;;;;;;;16.60;63.00;;;;;;5093022;28;19920;-70
2022/09/27 05:39:45;;;;;;;;;;;16.70;63.40;;;;;;5067375;28;19985;-68
2022/09/27 05:42:14;;;;;;;;;;;16.70;63.20;;;;;;5068431;28;19920;-68
2022/09/27 05:44:40;;;;;;;;;;;16.90;63.00;;;;;;5068800;28;20404;-69
2022/09/27 05:47:05;;;;;;;;;;;17.00;62.90;;;;;;5071504;28;20010;-68
2022/09/27 05:49:31;;;;;;;;;;;17.00;62.80;;;;;;5088660;28;19923;-68
2022/09/27 05:51:57;;;;;;;;;;;17.10;62.60;;;;;;5091446;28;20011;-66
2022/09/27 05:54:23;;;;;;;;;;;17.10;62.60;;;;;;5089189;28;19920;-66
2022/09/27 05:56:48;;;;;;;;;;;17.20;62.40;;;;;;5072768;28;19920;-66
2022/09/27 05:59:14;;;;;;;;;;;17.20;62.20;;;;;;5088611;28;19947;-66
2022/09/27 06:01:40;;;;;;;;;;;17.20;62.10;;;;;;5087970;28;20399;-67
2022/09/27 06:04:05;;;;;;;;;;;17.30;62.00;;;;;;5080590;28;20003;-69
2022/09/27 06:06:33;;;;;;;;;;;17.40;62.00;;;;;;5088612;28;20288;-66
2022/09/27 06:09:00;;;;;;;;;;;17.40;61.80;;;;;;5070217;28;19924;-66
2022/09/27 06:11:26;;;;;;;;;;;17.40;61.60;;;;;;5048027;28;19935;-66
2022/09/27 06:13:51;;;;;;;;;;;17.50;61.50;;;;;;5083806;28;19931;-67
2022/09/27 06:16:17;;;;;;;;;;;17.50;61.30;;;;;;5087472;28;20359;-67
2022/09/27 06:18:43;;;;;;;;;;;17.60;61.30;;;;;;5085652;28;20307;-69
2022/09/27 06:21:08;;;;;;;;;;;17.60;61.00;;;;;;5068716;28;20015;-68
2022/09/27 06:23:34;;;;;;;;;;;17.70;61.10;;;;;;5087852;28;19928;-69
2022/09/27 06:26:02;;;;;;;;;;;17.70;61.30;;;;;;5049114;28;19921;-66
2022/09/27 06:28:28;;;;;;;;;;;17.70;61.10;;;;;;5049205;28;19981;-66
2022/09/27 06:30:53;;;;;;;;;;;17.70;61.20;;;;;;5051844;28;19932;-66
2022/09/27 06:33:19;;;;;;;;;;;17.70;61.20;;;;;;5071476;28;19938;-66
2022/09/27 06:35:45;;;;;;;;;;;17.70;61.10;;;;;;5061772;28;19921;-67
2022/09/27 06:38:12;;;;;;;;;;;17.70;61.10;;;;;;5053136;28;19998;-67
2022/09/27 06:40:38;;;;;;;;;;;17.80;61.10;;;;;;5059454;28;19928;-67
2022/09/27 06:43:04;;;;;;;;;;;17.80;61.10;;;;;;5071103;28;19924;-66
2022/09/27 06:45:31;;;;;;;;;;;17.80;61.10;;;;;;5072561;28;19928;-67
2022/09/27 06:47:57;;;;;;;;;;;17.80;61.10;;;;;;5050134;28;20427;-68
2022/09/27 06:50:23;;;;;;;;;;;17.80;61.20;;;;;;5073076;28;20023;-67
2022/09/27 06:52:49;;;;;;;;;;;17.80;61.10;;;;;;5056883;28;19928;-67
2022/09/27 06:55:15;;;;;;;;;;;17.80;61.10;;;;;;5055991;28;19921;-67
2022/09/27 07:00:26;;;;;;;;;;;17.90;61.10;;;;;;5071407;28;20043;-66
2022/09/27 07:02:53;;;;;;;;;;;18.00;61.00;;;;;;5054589;28;20003;-65
2022/09/27 07:05:19;;;;;;;;;;;18.00;60.90;;;;;;5070844;28;19951;-67
2022/09/27 07:07:46;;;;;;;;;;;18.10;60.80;;;;;;5073763;28;19924;-66
2022/09/27 07:10:12;;;;;;;;;;;18.10;60.80;;;;;;5071776;28;20374;-66
2022/09/27 07:12:38;;;;;;;;;;;18.20;60.80;;;;;;5051795;28;19982;-70
2022/09/27 07:15:04;;;;;;;;;;;18.20;60.80;;;;;;5073165;28;19924;-68
2022/09/27 07:17:29;;;;;;;;;;;18.20;60.90;;;;;;5073591;28;19960;-70
2022/09/27 07:19:55;;;;;;;;;;;18.20;61.00;;;;;;5056182;28;19983;-69
2022/09/27 07:22:21;;;;;;;;;;;18.20;61.20;;;;;;5071665;28;19932;-69
2022/09/27 07:24:46;;;;;;;;;;;18.10;61.30;;;;;;5054561;28;19920;-72
2022/09/27 07:27:12;;;;;;;;;;;18.10;61.20;;;;;;5076222;28;19973;-68
2022/09/27 07:29:38;;;;;;;;;;;18.10;61.50;;;;;;5075209;28;20028;-67
2022/09/27 07:32:03;;;;;;;;;;;18.00;61.20;;;;;;5073552;28;20934;-66
2022/09/27 07:34:29;;;;;;;;;;;18.00;61.30;;;;;;5062177;28;20003;-67
2022/09/27 07:36:58;;;;;;;;;;;18.10;61.40;;;;;;5075767;28;20016;-71
2022/09/27 07:39:23;;;;;;;;;;;18.10;61.50;;;;;;5063068;28;20011;-71
2022/09/27 07:41:49;;;;;;;;;;;18.10;61.70;;;;;;5053084;28;20357;-70
2022/09/27 07:44:15;;;;;;;;;;;18.10;61.80;;;;;;5072192;28;19927;-70
2022/09/27 07:46:41;;;;;;;;;;;18.00;61.80;;;;;;5077096;28;20407;-70
2022/09/27 07:49:06;;;;;;;;;;;18.00;61.90;;;;;;5078394;28;20340;-71
2022/09/27 07:51:32;;;;;;;;;;;18.00;62.00;;;;;;5058076;28;20370;-71
2022/09/27 07:54:00;;;;;;;;;;;18.00;62.00;;;;;;5060523;28;19924;-69
2022/09/27 07:56:26;;;;;;;;;;;18.00;61.90;;;;;;5062173;28;20395;-71
2022/09/27 07:58:51;;;;;;;;;;;18.00;61.90;;;;;;5078082;28;19928;-71
2022/09/27 08:01:17;;;;;;;;;;;18.00;61.90;;;;;;5062819;28;19931;-71
2022/09/27 08:03:43;;;;;;;;;;;18.00;62.00;;;;;;5054968;28;19924;-72
2022/09/27 08:06:09;;;;;;;;;;;18.00;62.10;;;;;;5076284;28;20007;-71
2022/09/27 08:08:35;;;;;;;;;;;18.10;62.20;;;;;;5061384;28;20022;-71
2022/09/27 08:11:01;;;;;;;;;;;18.10;62.30;;;;;;5058135;28;20356;-69
2022/09/27 08:13:26;;;;;;;;;;;18.10;62.30;;;;;;5074771;28;20033;-69
2022/09/27 08:15:52;;;;;;;;;;;18.10;62.20;;;;;;5064887;28;19928;-72
2022/09/27 08:18:17;;;;;;;;;;;18.10;62.10;;;;;;5076053;28;19943;-69
2022/09/27 08:20:43;;;;;;;;;;;18.10;62.10;;;;;;5056622;28;19928;-69
2022/09/27 08:23:08;;;;;;;;;;;18.10;62.10;;;;;;5057991;28;19924;-69
2022/09/27 08:25:34;;;;;;;;;;;18.20;62.10;;;;;;5061668;28;19932;-69
2022/09/27 08:28:01;;;;;;;;;;;18.30;62.80;;;;;;5075695;28;20342;-69
2022/09/27 08:30:28;;;;;;;;;;;18.30;62.10;;;;;;5058818;28;20015;-71
2022/09/27 08:32:54;;;;;;;;;;;18.30;61.90;;;;;;5057256;28;20417;-71
2022/09/27 08:35:19;;;;;;;;;;;18.30;61.90;;;;;;5074716;28;19924;-71
2022/09/27 08:37:51;;;;;;;;;;;18.40;62.00;;;;;;5063261;28;20296;-70
2022/09/27 08:40:22;;;;;;;;;;;18.40;62.00;;;;;;5060570;28;19920;-71
2022/09/27 08:42:57;;;;;;;;;;;18.40;61.90;;;;;;5077535;28;19928;-70
2022/09/27 08:45:30;;;;;;;;;;;18.50;61.90;;;;;;5078638;28;20220;-70
2022/09/27 08:47:57;;;;;;;;;;;18.50;61.90;;;;;;5061686;28;20463;-69
2022/09/27 08:53:07;;;;;;;;;;;18.50;61.90;;;;;;5063092;28;19932;-68
2022/09/27 08:55:37;;;;;;;;;;;18.50;61.80;;;;;;5061370;28;20262;-66
2022/09/27 08:58:09;;;;;;;;;;;18.50;61.80;;;;;;5046878;28;19925;-69
2022/09/27 09:00:34;;;;;;;;;;;18.40;61.80;;;;;;5051227;28;19936;-69
2022/09/27 09:03:01;;;;;;;;;;;18.40;61.80;;;;;;5053507;28;19925;-70
2022/09/27 09:05:30;;;;;;;;;;;18.30;61.80;;;;;;5048006;28;19960;-68
2022/09/27 09:08:07;;;;;;;;;;;18.30;61.70;;;;;;5062614;28;20304;-68
2022/09/27 09:13:47;;;;;;;;;;;18.30;61.80;;;;;;5044213;28;19968;-68
2022/09/27 09:16:27;;;;;;;;;;;18.30;62.10;;;;;;5048372;28;19986;-71
2022/09/27 09:35:14;;;;;;;;;;;18.40;62.20;;;;;;5055038;28;20821;-72
2022/09/27 09:37:42;;;;;;;;;;;18.50;62.10;;;;;;5055133;28;19929;-72
2022/09/27 09:43:10;;;;;;;;;;;18.50;62.00;;;;;;5068573;28;19925;-71
2022/09/27 09:45:40;;;;;;;;;;;18.60;62.00;;;;;;5070331;28;19948;-71
2022/09/27 09:48:25;;;;;;;;;;;18.60;61.90;;;;;;5070351;28;20011;-71
2022/09/27 09:50:53;;;;;;;;;;;18.60;62.00;;;;;;5082420;28;19936;-71
2022/09/27 09:53:22;;;;;;;;;;;18.70;62.10;;;;;;5069255;28;19924;-70
2022/09/27 09:55:51;;;;;;;;;;;18.60;62.00;;;;;;5068107;28;20020;-69
2022/09/27 09:58:23;;;;;;;;;;;18.70;62.10;;;;;;5084177;28;19932;-71
2022/09/27 10:00:53;;;;;;;;;;;18.70;62.10;;;;;;5065967;28;19925;-71
2022/09/27 10:03:19;;;;;;;;;;;18.70;62.00;;;;;;5070008;28;19928;-71
2022/09/27 10:05:50;;;;;;;;;;;18.70;62.20;;;;;;5069349;28;19932;-70
2022/09/27 10:08:21;;;;;;;;;;;18.70;62.50;;;;;;5065867;28;19947;-71
2022/09/27 10:10:46;;;;;;;;;;;18.70;62.00;;;;;;5054055;28;19928;-70
2022/09/27 10:13:17;;;;;;;;;;;18.80;62.10;;;;;;5067926;28;19928;-71
2022/09/27 10:15:47;;;;;;;;;;;18.80;62.00;;;;;;5067604;28;19929;-71
2022/09/27 10:18:16;;;;;;;;;;;18.80;61.90;;;;;;5069930;28;19924;-69
2022/09/27 10:20:52;;;;;;;;;;;18.80;62.10;;;;;;5067085;28;19929;-70
2022/09/27 10:23:20;;;;;;;;;;;18.80;62.30;;;;;;5073259;28;20376;-68
2022/09/27 10:28:31;;;;;;;;;;;18.80;62.50;;;;;;5112376;27;19920;-70
2022/09/27 10:31:02;;;;;;;;;;;18.80;62.90;;;;;;5090744;28;19920;-70
2022/09/27 10:33:29;;;;;;;;;;;18.80;63.00;;;;;;5099655;28;19962;-70
2022/09/27 10:35:55;;;;;;;;;;;18.70;62.60;;;;;;5086395;28;19931;-73
2022/09/27 10:38:22;;;;;;;;;;;18.80;62.90;;;;;;5105253;28;19924;-70
2022/09/27 10:40:49;;;;;;;;;;;18.90;62.90;;;;;;5103231;28;19992;-68
2022/09/27 10:43:31;;;;;;;;;;;18.80;63.00;;;;;;5099824;28;19920;-68
2022/09/27 10:48:46;;;;;;;;;;;18.80;63.50;;;;;;5073035;27;1940873;-68
2022/09/27 10:51:31;;;;;;;;;;;18.80;62.70;;;;;;5100753;27;20571;-69
2022/09/27 10:53:59;;;;;;;;;;;18.70;62.60;;;;;;5104056;27;19927;-70
2022/09/27 10:56:28;;;;;;;;;;;18.70;62.90;;;;;;5104787;27;19947;-67
2022/09/27 10:58:54;;;;;;;;;;;18.70;62.90;;;;;;5107666;27;19976;-68
2022/09/27 11:01:20;;;;;;;;;;;18.70;63.00;;;;;;5105371;27;19926;-67
2022/09/27 11:03:51;;;;;;;;;;;18.70;63.00;;;;;;5103189;28;20367;-68
2022/09/27 11:06:24;;;;;;;;;;;18.80;63.00;;;;;;5104889;28;20044;-67
2022/09/27 11:08:51;;;;;;;;;;;18.70;63.20;;;;;;5124016;27;19930;-69
2022/09/27 11:11:19;;;;;;;;;;;18.70;63.40;;;;;;5098872;28;20010;-70
2022/09/27 11:14:03;;;;;;;;;;;18.70;63.50;;;;;;5098103;27;19962;-70
2022/09/27 11:22:08;;;;;;;;;;;18.60;63.50;;;;;;5083315;27;20296;-70
2022/09/27 11:24:47;;;;;;;;;;;18.70;63.50;;;;;;5080282;28;20288;-67
2022/09/27 11:27:19;;;;;;;;;;;18.70;63.60;;;;;;5081245;28;19920;-69
2022/09/27 11:33:01;;;;;;;;;;;18.70;63.50;;;;;;5069388;28;19921;-70
2022/09/27 11:35:32;;;;;;;;;;;18.60;63.50;;;;;;5070448;28;20456;-70
2022/09/27 11:43:39;;;;;;;;;;;18.60;63.60;;;;;;5076427;27;20304;-67
2022/09/27 11:46:20;;;;;;;;;;;18.60;63.50;;;;;;5100532;28;20449;-68
2022/09/27 11:51:52;;;;;;;;;;;18.60;64.20;;;;;;5085794;27;20470;-69
2022/09/27 12:02:37;;;;;;;;;;;18.70;63.30;;;;;;5086802;27;19932;-68
2022/09/27 12:05:13;;;;;;;;;;;18.60;63.20;;;;;;5091463;28;19930;-68
2022/09/27 12:07:44;;;;;;;;;;;18.60;64.00;;;;;;5119957;27;19936;-68
2022/09/27 12:10:13;;;;;;;;;;;18.60;63.20;;;;;;5088335;28;19924;-66
2022/09/27 12:12:40;;;;;;;;;;;18.60;63.10;;;;;;5084792;28;19967;-67
2022/09/27 12:15:13;;;;;;;;;;;18.60;63.00;;;;;;5085708;28;19921;-67
2022/09/27 12:17:41;;;;;;;;;;;18.60;63.00;;;;;;5090384;28;20185;-68
2022/09/27 12:20:23;;;;;;;;;;;18.50;63.10;;;;;;5104876;28;19924;-70
2022/09/27 12:22:55;;;;;;;;;;;18.50;62.90;;;;;;5085752;28;19950;-67
2022/09/27 12:25:22;;;;;;;;;;;18.50;62.90;;;;;;5086891;28;19928;-67
2022/09/27 12:27:50;;;;;;;;;;;18.50;62.90;;;;;;5088674;28;19971;-68
2022/09/27 12:30:16;;;;;;;;;;;18.50;62.90;;;;;;5088624;28;19935;-70
2022/09/27 12:35:27;;;;;;;;;;;18.50;62.90;;;;;;5073423;27;20589;-68
2022/09/27 12:37:59;;;;;;;;;;;18.50;62.80;;;;;;5103803;27;20352;-69
2022/09/27 12:40:28;;;;;;;;;;;18.50;62.90;;;;;;5070964;28;19928;-69
2022/09/27 12:42:56;;;;;;;;;;;18.50;63.20;;;;;;5068381;28;20278;-69
2022/09/27 12:45:30;;;;;;;;;;;18.60;63.20;;;;;;5071380;28;20271;-71
2022/09/27 12:48:00;;;;;;;;;;;18.60;63.20;;;;;;5071790;28;19985;-71
2022/09/27 12:50:36;;;;;;;;;;;18.60;63.30;;;;;;5075847;28;19927;-71
2022/09/27 12:53:04;;;;;;;;;;;18.70;63.30;;;;;;5076014;28;19971;-68
2022/09/27 12:55:37;;;;;;;;;;;18.70;63.20;;;;;;5071878;28;19978;-68
2022/09/27 13:00:52;;;;;;;;;;;18.80;63.40;;;;;;5081046;27;19923;-73
2022/09/27 13:06:18;;;;;;;;;;;18.80;63.00;;;;;;5070373;28;19917;-70
2022/09/27 13:09:04;;;;;;;;;;;18.90;62.90;;;;;;5078915;28;20011;-70
2022/09/27 13:11:40;;;;;;;;;;;18.90;62.70;;;;;;5077782;28;19920;-70
2022/09/27 13:14:10;;;;;;;;;;;18.90;62.50;;;;;;5079204;28;19924;-71
2022/09/27 13:16:43;;;;;;;;;;;19.00;62.40;;;;;;5080312;28;19945;-71
2022/09/27 13:19:28;;;;;;;;;;;19.00;62.30;;;;;;5077388;28;19920;-71
2022/09/27 13:21:55;;;;;;;;;;;18.90;62.10;;;;;;5061168;28;19935;-73
2022/09/27 13:24:29;;;;;;;;;;;19.00;61.70;;;;;;5067659;28;20010;-74
2022/09/27 13:26:59;;;;;;;;;;;19.00;61.70;;;;;;5072297;28;19920;-73
2022/09/27 13:29:27;;;;;;;;;;;19.00;61.70;;;;;;5083997;28;19921;-73
2022/09/27 13:37:36;;;;;;;;;;;18.90;61.60;;;;;;5085358;28;19913;-73
2022/09/27 13:42:56;;;;;;;;;;;18.90;61.70;;;;;;5102734;27;19916;-73
2022/09/27 13:45:28;;;;;;;;;;;18.80;61.60;;;;;;5101745;28;19947;-71
2022/09/27 13:47:55;;;;;;;;;;;18.80;61.60;;;;;;5106452;28;19926;-71
2022/09/27 13:50:25;;;;;;;;;;;18.80;61.60;;;;;;5095126;28;20033;-71
2022/09/27 13:52:57;;;;;;;;;;;18.80;61.70;;;;;;5089707;28;20308;-72
2022/09/27 13:55:40;;;;;;;;;;;18.80;61.70;;;;;;5092528;28;20006;-73
2022/09/27 13:58:14;;;;;;;;;;;18.80;61.50;;;;;;5093614;28;19955;-76
2022/09/27 14:00:42;;;;;;;;;;;18.90;61.60;;;;;;5087912;28;19974;-69
2022/09/27 14:06:01;;;;;;;;;;;18.90;61.20;;;;;;5077682;27;19926;-73
2022/09/27 14:08:32;;;;;;;;;;;18.90;61.20;;;;;;5086806;28;19928;-71
2022/09/27 14:10:59;;;;;;;;;;;19.00;61.10;;;;;;5059991;28;19924;-77
2022/09/27 14:13:25;;;;;;;;;;;19.00;61.00;;;;;;5091258;28;20133;-74
2022/09/27 14:15:52;;;;;;;;;;;19.10;61.10;;;;;;5058067;28;19932;-68
2022/09/27 14:18:18;;;;;;;;;;;19.10;61.10;;;;;;5056407;28;19968;-69
2022/09/27 14:20:46;;;;;;;;;;;19.10;61.30;;;;;;5058264;28;19971;-70
2022/09/27 14:23:14;;;;;;;;;;;19.10;61.20;;;;;;5056495;28;20564;-73
2022/09/27 14:25:44;;;;;;;;;;;19.10;61.10;;;;;;5061286;28;19932;-72
2022/09/27 14:28:19;;;;;;;;;;;19.10;60.90;;;;;;5055613;28;20360;-72
2022/09/27 14:30:45;;;;;;;;;;;19.10;61.00;;;;;;5091695;28;20047;-75
2022/09/27 14:33:26;;;;;;;;;;;19.20;60.90;;;;;;5057440;28;19929;-73
2022/09/27 14:38:37;;;;;;;;;;;19.20;60.90;;;;;;5059007;28;19974;-72
2022/09/27 14:41:06;;;;;;;;;;;19.20;60.70;;;;;;5063456;28;19971;-71
2022/09/27 14:43:33;;;;;;;;;;;19.20;60.70;;;;;;5092545;28;19921;-71
2022/09/27 14:46:00;;;;;;;;;;;19.20;60.60;;;;;;5064742;28;19921;-72
2022/09/27 14:53:55;;;;;;;;;;;19.10;60.40;;;;;;5082785;28;20312;-69
2022/09/27 14:56:24;;;;;;;;;;;19.10;60.50;;;;;;5082322;28;19950;-70
2022/09/27 14:59:01;;;;;;;;;;;19.20;60.60;;;;;;5080905;28;20020;-70
2022/09/27 15:01:27;;;;;;;;;;;19.10;60.50;;;;;;5084160;28;19950;-71
2022/09/27 15:03:53;;;;;;;;;;;19.20;60.60;;;;;;5083347;28;19928;-66
2022/09/27 15:06:19;;;;;;;;;;;19.20;60.60;;;;;;5083100;28;19978;-68
2022/09/27 15:08:48;;;;;;;;;;;19.20;60.70;;;;;;5083594;28;19975;-66
2022/09/27 15:11:14;;;;;;;;;;;19.20;60.80;;;;;;5085283;28;19921;-66
2022/09/27 15:13:43;;;;;;;;;;;19.20;60.90;;;;;;5084967;28;20015;-70
2022/09/27 15:16:15;;;;;;;;;;;19.20;61.00;;;;;;5087438;28;20007;-69
2022/09/27 15:18:42;;;;;;;;;;;19.20;61.00;;;;;;5085393;28;20011;-70
2022/09/27 15:21:09;;;;;;;;;;;19.10;60.90;;;;;;5083935;28;19966;-71
2022/09/27 15:23:37;;;;;;;;;;;19.10;61.70;;;;;;5085490;28;19931;-71
2022/09/27 15:26:21;;;;;;;;;;;19.00;61.70;;;;;;5084935;28;19927;-70
2022/09/27 15:28:48;;;;;;;;;;;18.90;61.00;;;;;;5084914;28;19974;-69
2022/09/27 15:31:14;;;;;;;;;;;18.80;61.10;;;;;;5084362;28;20422;-71
2022/09/27 15:33:40;;;;;;;;;;;18.80;61.20;;;;;;5085613;28;20011;-71
2022/09/27 15:36:09;;;;;;;;;;;18.80;61.30;;;;;;5086565;28;19920;-70
2022/09/27 15:41:19;;;;;;;;;;;18.70;61.30;;;;;;5088387;28;19916;-70
2022/09/27 15:46:27;;;;;;;;;;;18.60;61.30;;;;;;5088491;28;19919;-70
2022/09/27 15:49:12;;;;;;;;;;;18.60;61.50;;;;;;5086586;28;19958;-71
2022/09/27 15:51:39;;;;;;;;;;;18.60;61.40;;;;;;5086876;28;19946;-71
2022/09/27 15:54:05;;;;;;;;;;;18.60;61.40;;;;;;5087121;28;19982;-71
2022/09/27 15:56:33;;;;;;;;;;;18.50;61.40;;;;;;5088374;28;19928;-70
2022/09/27 15:58:59;;;;;;;;;;;18.50;61.40;;;;;;5087449;28;19920;-70
2022/09/27 16:01:24;;;;;;;;;;;18.50;61.40;;;;;;5086720;28;19943;-71
2022/09/27 16:03:50;;;;;;;;;;;18.40;61.40;;;;;;5086217;28;20011;-71
2022/09/27 16:06:15;;;;;;;;;;;18.40;61.40;;;;;;5086383;28;19928;-69
2022/09/27 16:08:42;;;;;;;;;;;18.40;61.40;;;;;;5087909;28;19920;-70
2022/09/27 16:11:09;;;;;;;;;;;18.40;61.40;;;;;;5088192;28;20292;-70
2022/09/27 16:13:35;;;;;;;;;;;18.40;61.40;;;;;;5087715;28;20126;-71
2022/09/27 16:16:01;;;;;;;;;;;18.30;61.40;;;;;;5086443;28;20006;-70
2022/09/27 16:18:27;;;;;;;;;;;18.40;61.50;;;;;;5088264;28;19921;-70